createdAt,value
2019-04-06T00:01:31.020Z,21.10
2019-04-06T00:04:00.665Z,19.90
2019-04-06T00:06:30.231Z,20.00
2019-04-06T00:08:59.994Z,19.60
2019-04-06T00:11:29.304Z,19.47
2019-04-06T00:13:58.784Z,20.37
2019-04-06T00:16:28.511Z,19.93
2019-04-06T00:19:02.822Z,16.17
2019-04-06T00:21:32.500Z,19.40
2019-04-06T00:24:02.005Z,19.20
2019-04-06T00:26:31.665Z,20.03
2019-04-06T00:29:01.671Z,19.80
2019-04-06T00:31:49.218Z,20.63
2019-04-06T00:34:21.574Z,22.60
2019-04-06T00:36:52.947Z,21.30
2019-04-06T00:39:22.924Z,20.60
2019-04-06T00:41:53.228Z,18.17
2019-04-06T00:44:22.935Z,18.30
2019-04-06T00:46:57.409Z,18.97
2019-04-06T00:49:27.904Z,19.83
2019-04-06T00:51:57.925Z,22.40
2019-04-06T00:54:27.662Z,18.43
2019-04-06T00:56:58.170Z,19.70
2019-04-06T00:59:27.882Z,16.70
2019-04-06T01:02:02.318Z,20.10
2019-04-06T01:04:32.228Z,18.67
2019-04-06T01:09:37.247Z,16.50
2019-04-06T01:12:07.273Z,18.60
2019-04-06T01:14:36.961Z,18.37
2019-04-06T01:17:07.275Z,17.93
2019-04-06T01:19:37.238Z,17.93
2019-04-06T01:22:07.026Z,16.20
2019-04-06T01:24:36.658Z,18.83
2019-04-06T01:27:08.383Z,17.03
2019-04-06T01:29:38.466Z,16.07
2019-04-06T01:32:08.031Z,16.77
2019-04-06T01:34:37.873Z,19.87
2019-04-06T01:37:07.870Z,19.70
2019-04-06T01:39:37.594Z,19.03
2019-04-06T01:42:09.655Z,19.00
2019-04-06T01:44:39.369Z,17.13
2019-04-06T01:47:09.214Z,21.97
2019-04-06T01:49:38.977Z,20.23
2019-04-06T01:52:08.603Z,19.20
2019-04-06T01:54:38.885Z,19.93
2019-04-06T01:57:09.117Z,18.37
2019-04-06T01:59:38.901Z,16.97
2019-04-06T02:02:22.179Z,18.20
2019-04-06T02:04:52.190Z,17.80
2019-04-06T02:07:24.286Z,18.00
2019-04-06T02:09:54.475Z,17.20
2019-04-06T02:12:24.612Z,17.50
2019-04-06T02:14:55.877Z,17.07
2019-04-06T02:17:25.506Z,18.73
2019-04-06T02:19:55.172Z,19.90
2019-04-06T02:22:25.170Z,19.23
2019-04-06T02:24:56.145Z,19.00
2019-04-06T02:27:26.512Z,19.53
2019-04-06T02:30:13.961Z,21.30
2019-04-06T02:33:21.374Z,21.37
2019-04-06T02:39:55.309Z,16.67
2019-04-06T02:43:02.833Z,20.90
2019-04-06T02:45:32.984Z,19.90
2019-04-06T02:48:03.212Z,21.37
2019-04-06T02:50:32.875Z,24.10
2019-04-06T02:53:02.689Z,23.10
2019-04-06T02:55:32.314Z,20.87
2019-04-06T02:58:02.393Z,21.17
2019-04-06T03:00:32.872Z,20.50
2019-04-06T03:03:04.390Z,19.60
2019-04-06T03:05:34.992Z,19.73
2019-04-06T03:08:07.790Z,19.10
2019-04-06T03:10:37.819Z,20.33
2019-04-06T03:13:08.077Z,16.97
2019-04-06T03:15:38.715Z,19.83
2019-04-06T03:18:10.609Z,27.13
2019-04-06T03:20:40.283Z,20.63
2019-04-06T03:23:10.941Z,21.37
2019-04-06T03:25:40.542Z,21.50
2019-04-06T03:28:10.242Z,20.83
2019-04-06T03:30:40.267Z,20.87
2019-04-06T03:33:11.026Z,19.40
2019-04-06T03:35:47.001Z,18.93
2019-04-06T03:38:11.889Z,19.97
2019-04-06T03:43:18.862Z,18.00
2019-04-06T03:45:48.797Z,21.57
2019-04-06T03:48:18.668Z,20.13
2019-04-06T03:50:48.347Z,19.77
2019-04-06T03:53:17.673Z,20.70
2019-04-06T03:55:47.177Z,22.30
2019-04-06T03:58:16.952Z,22.77
2019-04-06T04:00:47.306Z,22.60
2019-04-06T04:03:17.607Z,19.60
2019-04-06T04:05:47.911Z,20.60
2019-04-06T04:08:18.095Z,18.43
2019-04-06T04:10:48.140Z,26.30
2019-04-06T04:13:18.059Z,20.93
2019-04-06T04:15:48.355Z,20.60
2019-04-06T04:18:19.043Z,23.50
2019-04-06T04:20:49.308Z,20.33
2019-04-06T04:23:19.207Z,21.80
2019-04-06T04:25:49.098Z,22.70
2019-04-06T04:28:19.124Z,19.63
2019-04-06T04:30:50.277Z,23.03
2019-04-06T04:33:20.829Z,24.10
2019-04-06T04:35:51.528Z,20.17
2019-04-06T04:38:21.201Z,20.17
2019-04-06T04:40:52.687Z,20.00
2019-04-06T04:43:22.326Z,20.13
2019-04-06T04:45:52.600Z,19.80
2019-04-06T04:48:22.890Z,20.20
2019-04-06T04:53:27.746Z,20.20
2019-04-06T04:55:57.844Z,21.07
2019-04-06T04:58:27.404Z,20.00
2019-04-06T05:00:56.966Z,19.27
2019-04-06T05:03:26.699Z,18.30
2019-04-06T05:05:56.416Z,23.17
2019-04-06T05:08:26.663Z,25.70
2019-04-06T05:10:56.602Z,30.53
2019-04-06T05:13:26.432Z,35.13
2019-04-06T05:16:21.653Z,21.33
2019-04-06T05:18:51.583Z,22.03
2019-04-06T05:21:21.653Z,20.77
2019-04-06T05:23:51.806Z,21.77
2019-04-06T05:26:21.694Z,21.47
2019-04-06T05:28:51.341Z,22.23
2019-04-06T05:31:21.172Z,24.73
2019-04-06T05:33:51.199Z,26.80
2019-04-06T05:36:21.295Z,33.63
2019-04-06T05:38:51.873Z,37.37
2019-04-06T05:41:21.557Z,39.07
2019-04-06T05:43:51.929Z,37.83
2019-04-06T05:46:22.058Z,24.30
2019-04-06T05:48:53.096Z,22.40
2019-04-06T05:51:22.769Z,28.23
2019-04-06T05:53:52.492Z,29.10
2019-04-06T05:56:22.159Z,28.80
2019-04-06T06:02:29.002Z,23.60
2019-04-06T06:07:35.527Z,24.83
2019-04-06T06:12:41.772Z,29.37
2019-04-06T06:15:11.969Z,22.80
2019-04-06T06:17:42.087Z,26.10
2019-04-06T06:22:47.961Z,26.77
2019-04-06T06:25:18.446Z,27.27
2019-04-06T06:27:48.743Z,26.10
2019-04-06T06:30:19.251Z,27.17
2019-04-06T06:32:48.698Z,26.43
2019-04-06T06:35:18.423Z,24.90
2019-04-06T06:37:48.280Z,26.90
2019-04-06T06:40:17.859Z,25.03
2019-04-06T06:42:47.327Z,26.67
2019-04-06T06:45:16.823Z,24.20
2019-04-06T06:47:46.639Z,22.97
2019-04-06T06:50:16.457Z,26.83
2019-04-06T06:52:46.038Z,27.47
2019-04-06T06:55:16.097Z,25.67
2019-04-06T06:57:45.777Z,33.17
2019-04-06T07:00:15.641Z,25.17
2019-04-06T07:02:45.250Z,27.13
2019-04-06T07:05:15.653Z,30.37
2019-04-06T07:07:45.321Z,27.80
2019-04-06T07:10:14.961Z,29.93
2019-04-06T07:12:44.652Z,27.47
2019-04-06T07:15:14.412Z,32.73
2019-04-06T07:17:44.725Z,33.13
2019-04-06T07:20:15.457Z,28.90
2019-04-06T07:22:45.180Z,39.60
2019-04-06T07:25:15.766Z,26.47
2019-04-06T07:27:45.336Z,31.70
2019-04-06T07:30:15.020Z,31.67
2019-04-06T07:32:44.687Z,32.93
2019-04-06T07:35:14.686Z,32.70
2019-04-06T07:37:44.399Z,34.43
2019-04-06T07:40:14.354Z,31.80
2019-04-06T07:42:45.285Z,33.30
2019-04-06T07:45:15.249Z,34.37
2019-04-06T07:47:45.015Z,35.37
2019-04-06T07:50:15.561Z,37.83
2019-04-06T07:52:45.359Z,39.10
2019-04-06T07:55:15.697Z,42.17
2019-04-06T07:57:45.914Z,42.93
2019-04-06T08:00:16.076Z,32.23
2019-04-06T08:02:46.020Z,41.67
2019-04-06T08:05:15.662Z,37.10
2019-04-06T08:07:46.231Z,39.83
2019-04-06T08:10:17.046Z,40.27
2019-04-06T08:12:47.199Z,41.27
2019-04-06T08:15:18.624Z,41.37
2019-04-06T08:17:52.027Z,39.40
2019-04-06T08:20:27.971Z,41.13
2019-04-06T08:22:57.951Z,41.67
2019-04-06T08:25:28.911Z,41.90
2019-04-06T08:28:01.911Z,40.63
2019-04-06T08:30:47.864Z,44.13
2019-04-06T08:33:20.187Z,41.13
2019-04-06T08:36:01.433Z,42.80
2019-04-06T08:38:56.592Z,40.63
2019-04-06T08:41:30.288Z,42.30
2019-04-06T08:44:15.104Z,48.47
2019-04-06T08:46:48.719Z,42.93
2019-04-06T08:49:18.485Z,42.10
2019-04-06T08:51:48.274Z,43.10
2019-04-06T08:54:19.499Z,45.83
2019-04-06T08:56:49.757Z,46.97
2019-04-06T08:59:19.325Z,50.50
2019-04-06T09:01:51.610Z,43.00
2019-04-06T09:04:22.295Z,40.63
2019-04-06T09:06:54.350Z,40.43
2019-04-06T09:09:24.755Z,46.40
2019-04-06T09:12:03.044Z,45.50
2019-04-06T09:14:33.473Z,42.13
2019-04-06T09:17:03.387Z,38.23
2019-04-06T09:19:33.782Z,35.83
2019-04-06T09:22:07.231Z,43.10
2019-04-06T09:24:37.228Z,35.27
2019-04-06T09:27:14.424Z,37.70
2019-04-06T09:29:45.796Z,38.90
2019-04-06T09:32:19.405Z,38.13
2019-04-06T09:34:50.184Z,37.67
2019-04-06T09:37:20.302Z,38.33
2019-04-06T09:39:57.447Z,43.93
2019-04-06T09:42:34.161Z,39.13
2019-04-06T09:45:21.001Z,40.20
2019-04-06T09:48:13.218Z,38.80
2019-04-06T09:51:08.099Z,44.63
2019-04-06T09:54:05.149Z,44.80
2019-04-06T09:57:04.656Z,42.90
2019-04-06T10:00:04.181Z,42.03
2019-04-06T10:02:59.552Z,42.17
2019-04-06T10:05:36.424Z,41.97
2019-04-06T10:08:28.839Z,45.70
2019-04-06T10:14:36.347Z,45.27
2019-04-06T10:18:01.986Z,42.53
2019-04-06T10:27:44.639Z,44.97
2019-04-06T10:30:39.333Z,47.20
2019-04-06T10:33:27.265Z,42.67
2019-04-06T10:36:34.213Z,47.23
2019-04-06T10:42:29.577Z,44.80
2019-04-06T10:45:20.257Z,43.80
2019-04-06T10:48:08.539Z,39.10
2019-04-06T10:50:56.602Z,45.60
2019-04-06T10:53:42.859Z,44.37
2019-04-06T10:56:31.671Z,40.93
2019-04-06T10:59:24.107Z,41.60
2019-04-06T11:02:21.720Z,40.70
2019-04-06T11:05:17.015Z,43.50
2019-04-06T11:07:59.470Z,37.80
2019-04-06T11:10:40.140Z,42.53
2019-04-06T11:13:31.964Z,44.27
2019-04-06T11:16:20.360Z,41.97
2019-04-06T11:19:12.582Z,37.77
2019-04-06T11:22:16.953Z,45.73
2019-04-06T11:25:17.350Z,41.50
2019-04-06T11:28:11.945Z,36.50
2019-04-06T11:31:03.692Z,35.37
2019-04-06T11:33:55.236Z,35.00
2019-04-06T11:39:37.594Z,35.97
2019-04-06T11:42:21.382Z,35.83
2019-04-06T11:45:22.611Z,42.00
2019-04-06T11:48:15.737Z,41.03
2019-04-06T11:51:09.972Z,41.33
2019-04-06T11:53:59.116Z,34.90
2019-04-06T11:56:59.926Z,39.97
2019-04-06T11:59:53.554Z,40.30
2019-04-06T12:02:28.241Z,38.13
2019-04-06T12:05:04.345Z,38.30
2019-04-06T12:07:48.116Z,33.23
2019-04-06T12:10:36.550Z,35.53
2019-04-06T12:13:24.563Z,33.80
2019-04-06T12:16:13.470Z,32.40
2019-04-06T12:19:03.417Z,32.53
2019-04-06T12:21:46.098Z,35.90
2019-04-06T12:24:27.299Z,36.30
2019-04-06T12:27:31.607Z,38.27
2019-04-06T12:33:14.939Z,31.20
2019-04-06T12:36:03.029Z,31.57
2019-04-06T12:39:05.039Z,30.47
2019-04-06T12:41:53.356Z,31.63
2019-04-06T12:44:41.385Z,30.23
2019-04-06T12:47:23.843Z,33.33
2019-04-06T12:50:15.638Z,29.70
2019-04-06T12:55:56.552Z,32.07
2019-04-06T12:58:45.403Z,27.33
2019-04-06T13:01:32.825Z,28.37
2019-04-06T13:04:28.714Z,23.83
2019-04-06T13:07:25.929Z,27.23
2019-04-06T13:10:32.920Z,25.40
2019-04-06T13:13:28.293Z,29.00
2019-04-06T13:16:16.951Z,23.73
2019-04-06T13:19:13.819Z,26.03
2019-04-06T13:22:11.774Z,25.50
2019-04-06T13:25:12.902Z,23.17
2019-04-06T13:28:04.623Z,25.80
2019-04-06T13:31:08.645Z,24.97
2019-04-06T13:33:45.715Z,27.97
2019-04-06T13:36:28.194Z,24.70
2019-04-06T13:39:26.200Z,23.30
2019-04-06T13:45:24.683Z,23.87
2019-04-06T13:48:21.436Z,24.83
2019-04-06T13:51:00.118Z,25.37
2019-04-06T13:53:52.776Z,24.57
2019-04-06T13:56:40.945Z,25.30
2019-04-06T13:59:39.083Z,25.57
2019-04-06T14:02:36.908Z,25.90
2019-04-06T14:05:24.063Z,27.63
2019-04-06T14:08:15.355Z,28.30
2019-04-06T14:11:07.829Z,25.57
2019-04-06T14:13:54.599Z,25.73
2019-04-06T14:16:42.285Z,25.30
2019-04-06T14:19:33.978Z,29.17
2019-04-06T14:22:25.303Z,26.77
2019-04-06T14:25:05.827Z,25.30
2019-04-06T14:27:57.205Z,24.57
2019-04-06T14:31:03.610Z,30.97
2019-04-06T14:33:57.673Z,28.67
2019-04-06T14:36:46.014Z,29.57
2019-04-06T14:39:27.324Z,27.97
2019-04-06T14:42:16.276Z,23.70
2019-04-06T14:45:04.839Z,27.40
2019-04-06T14:48:11.725Z,28.23
2019-04-06T14:50:58.865Z,28.13
2019-04-06T14:53:38.018Z,27.63
2019-04-06T14:56:20.080Z,27.87
2019-04-06T14:59:00.482Z,25.17
2019-04-06T15:01:56.698Z,25.67
2019-04-06T15:04:34.374Z,26.33
2019-04-06T15:07:26.638Z,35.83
2019-04-06T15:10:14.358Z,23.93
2019-04-06T15:13:04.627Z,25.73
2019-04-06T15:16:05.503Z,25.10
2019-04-06T15:19:02.986Z,23.77
2019-04-06T15:21:39.630Z,27.20
2019-04-06T15:24:18.468Z,23.30
2019-04-06T15:27:09.459Z,26.03
2019-04-06T15:30:13.439Z,23.77
2019-04-06T15:35:49.466Z,24.43
2019-04-06T15:38:54.057Z,24.13
2019-04-06T15:41:54.743Z,24.57
2019-04-06T15:44:38.533Z,24.40
2019-04-06T15:47:30.044Z,25.77
2019-04-06T15:50:15.765Z,25.37
2019-04-06T15:52:59.737Z,27.27
2019-04-06T15:55:43.200Z,24.77
2019-04-06T15:58:21.659Z,25.60
2019-04-06T16:01:25.243Z,23.45
2019-04-06T16:04:13.468Z,24.50
2019-04-06T16:07:02.371Z,26.80
2019-04-06T16:09:49.768Z,23.57
2019-04-06T16:12:37.596Z,23.47
2019-04-06T16:15:25.184Z,27.60
2019-04-06T16:18:17.582Z,24.93
2019-04-06T16:21:12.118Z,24.93
2019-04-06T16:24:01.592Z,26.27
2019-04-06T16:27:01.085Z,23.30
2019-04-06T16:29:50.386Z,26.10
2019-04-06T16:32:57.683Z,24.40
2019-04-06T16:35:51.087Z,23.47
2019-04-06T16:38:34.242Z,24.20
2019-04-06T16:44:05.435Z,21.40
2019-04-06T16:46:57.078Z,22.97
2019-04-06T16:49:39.529Z,23.00
2019-04-06T16:55:47.101Z,23.00
2019-04-06T16:58:46.322Z,22.13
2019-04-06T17:11:16.885Z,21.73
2019-04-06T17:13:59.114Z,23.55
2019-04-06T17:16:54.010Z,22.30
2019-04-06T17:19:55.291Z,23.43
2019-04-06T17:25:27.125Z,25.17
2019-04-06T17:28:25.613Z,21.10
2019-04-06T17:31:28.703Z,21.37
2019-04-06T17:40:02.153Z,24.43
2019-04-06T17:46:06.051Z,32.73
2019-04-06T17:48:52.148Z,28.83
2019-04-06T17:51:53.549Z,23.33
2019-04-06T17:55:14.481Z,24.87
2019-04-06T17:57:59.690Z,22.63
2019-04-06T18:03:44.023Z,19.77
2019-04-06T18:06:25.992Z,25.20
2019-04-06T18:09:38.091Z,23.90
2019-04-06T18:15:04.093Z,21.60
2019-04-06T18:17:34.121Z,22.67
2019-04-06T18:20:09.706Z,22.07
2019-04-06T18:22:41.614Z,21.87
2019-04-06T18:25:12.243Z,21.07
2019-04-06T18:27:42.367Z,19.60
2019-04-06T18:30:12.370Z,21.80
2019-04-06T18:35:38.826Z,20.57
2019-04-06T18:38:15.117Z,19.73
2019-04-06T18:40:52.522Z,20.50
2019-04-06T18:43:23.267Z,19.53
2019-04-06T18:46:05.300Z,23.80
2019-04-06T18:53:49.055Z,19.60
2019-04-06T18:56:24.457Z,20.90
2019-04-06T18:58:56.437Z,19.83
2019-04-06T19:01:26.261Z,19.73
2019-04-06T19:03:57.647Z,25.40
2019-04-06T19:06:28.247Z,23.50
2019-04-06T19:08:59.815Z,18.10
2019-04-06T19:11:33.865Z,18.60
2019-04-06T19:14:09.561Z,21.53
2019-04-06T19:16:39.560Z,19.80
2019-04-06T19:19:10.438Z,21.37
2019-04-06T19:21:41.081Z,20.97
2019-04-06T19:24:11.257Z,23.10
2019-04-06T19:26:42.218Z,20.53
2019-04-06T19:29:16.068Z,19.83
2019-04-06T19:31:48.886Z,22.40
2019-04-06T19:34:20.669Z,18.33
2019-04-06T19:36:52.162Z,18.10
2019-04-06T19:39:22.244Z,19.07
2019-04-06T19:41:54.055Z,20.17
2019-04-06T19:44:27.248Z,23.40
2019-04-06T19:47:02.370Z,22.50
2019-04-06T19:49:35.220Z,20.70
2019-04-06T19:52:09.641Z,25.10
2019-04-06T19:54:40.522Z,27.77
2019-04-06T19:57:11.208Z,22.33
2019-04-06T19:59:41.421Z,23.73
2019-04-06T20:02:12.134Z,23.33
2019-04-06T20:04:46.715Z,21.80
2019-04-06T20:07:17.281Z,22.70
2019-04-06T20:10:03.997Z,21.50
2019-04-06T20:12:36.039Z,23.80
2019-04-06T20:15:06.903Z,21.33
2019-04-06T20:17:37.932Z,21.37
2019-04-06T20:20:08.662Z,23.40
2019-04-06T20:22:38.520Z,23.03
2019-04-06T20:25:08.366Z,24.77
2019-04-06T20:27:38.444Z,24.50
2019-04-06T20:30:09.513Z,23.00
2019-04-06T20:32:39.602Z,22.23
2019-04-06T20:35:09.743Z,22.80
2019-04-06T20:37:40.128Z,22.97
2019-04-06T20:40:11.877Z,21.67
2019-04-06T20:42:42.596Z,22.83
2019-04-06T20:45:17.403Z,26.17
2019-04-06T20:47:48.686Z,25.90
2019-04-06T20:50:19.420Z,27.70
2019-04-06T20:52:50.765Z,23.87
2019-04-06T20:55:22.048Z,26.40
2019-04-06T20:57:51.891Z,28.83
2019-04-06T21:00:21.965Z,27.43
2019-04-06T21:02:52.057Z,28.90
2019-04-06T21:05:22.361Z,24.27
2019-04-06T21:07:55.433Z,26.00
2019-04-06T21:10:28.285Z,26.90
2019-04-06T21:12:58.847Z,28.77
2019-04-06T21:15:28.578Z,26.27
2019-04-06T21:17:59.875Z,26.07
2019-04-06T21:20:31.469Z,30.95
2019-04-06T21:23:01.675Z,28.90
2019-04-06T21:25:31.100Z,23.27
2019-04-06T21:41:02.807Z,23.63
2019-04-06T21:43:34.429Z,22.00
2019-04-06T21:46:07.746Z,23.00
2019-04-06T21:48:38.435Z,21.50
2019-04-06T21:51:08.544Z,24.27
2019-04-06T21:53:44.471Z,22.83
2019-04-06T21:56:15.671Z,22.80
2019-04-06T21:58:46.276Z,24.00
2019-04-06T22:01:18.620Z,25.30
2019-04-06T22:03:49.573Z,25.10
2019-04-06T22:06:20.615Z,26.43
2019-04-06T22:08:52.226Z,29.03
2019-04-06T22:11:22.939Z,27.73
2019-04-06T22:14:05.610Z,28.40
2019-04-06T22:16:39.172Z,24.97
2019-04-06T22:19:09.994Z,27.80
2019-04-06T22:21:40.326Z,32.27
2019-04-06T22:24:11.909Z,34.47
2019-04-06T22:26:41.581Z,31.83
2019-04-06T22:29:11.770Z,35.60
2019-04-06T22:31:41.573Z,31.80
2019-04-06T22:34:11.754Z,28.43
2019-04-06T22:36:42.418Z,28.80
2019-04-06T22:39:13.256Z,27.33
2019-04-06T22:41:49.681Z,27.60
2019-04-06T22:44:21.353Z,26.77
2019-04-06T22:46:51.490Z,29.07
2019-04-06T22:52:08.032Z,31.33
2019-04-06T22:54:38.774Z,25.40
2019-04-06T22:57:09.076Z,24.40
2019-04-06T22:59:39.237Z,26.63
2019-04-06T23:02:10.198Z,27.30
2019-04-06T23:04:57.586Z,26.80
2019-04-06T23:07:28.071Z,26.60
2019-04-06T23:09:57.794Z,27.40
2019-04-06T23:15:04.918Z,27.07
2019-04-06T23:17:34.571Z,23.73
2019-04-06T23:20:04.695Z,28.83
2019-04-06T23:25:13.441Z,25.33
2019-04-06T23:27:42.994Z,22.97
2019-04-06T23:30:13.098Z,24.07
2019-04-06T23:32:45.893Z,24.80
2019-04-06T23:35:18.838Z,24.67
2019-04-06T23:37:49.204Z,25.73
2019-04-06T23:40:20.313Z,25.43
2019-04-06T23:42:54.939Z,24.03
2019-04-06T23:45:26.231Z,25.57
2019-04-06T23:47:56.567Z,24.90
2019-04-06T23:50:33.102Z,27.40
2019-04-06T23:53:05.594Z,26.47
2019-04-06T23:59:12.146Z,23.23
